Ferry Katsuragi — JI3611 — position and weather

sailwx.info

Track history (hours):
 
Tides and Currents Weather Stations Pressure Air Temp Water Temp Dewpoint Dewpoint Depression Visibility Wind Speed Wind Dir Waves Ship Positions

Ferry Katsuragi

Last reported at 2015-Jul-31 14:34 UTC. Time now 2015-Jul-31 15:28 UTC.
Position N 34°11' E 135°01'.

Length 108 m; draft 4 m.

Type: Passenger vessel. MMSI: 431301245.

Date/timePositionNaut miles runAvg speedWind from/ knotsBaromVisibWave heightAir tempDewpointWater temp
2015-Jul-31 14:34N 34°11' E 135°01'3 0.7
2015-Jul-31 10:33N 34°12' E 135°04'4 3.9
2015-Jul-31 09:33N 34°13' E 135°08'9 2.1
2015-Jul-31 05:22N 34°10' E 134°58'911.5
2015-Jul-31 04:34N 34°13' E 135°09'7 6.7
2015-Jul-31 03:33N 34°11' E 135°01'4 1.4
2015-Jul-31 00:17N 34°10' E 134°56'1114.8
2015-Jul-30 23:33N 34°13' E 135°08'2 1.7
2015-Jul-30 22:33N 34°13' E 135°06'7 1.7
2015-Jul-30 18:22N 34°11' E 134°58'911.3
2015-Jul-30 17:33N 34°13' E 135°09'0 0.0
2015-Jul-30 16:33N 34°13' E 135°09'0 0.0
2015-Jul-30 15:33N 34°13' E 135°09'7 7.2
2015-Jul-30 14:33N 34°11' E 135°00'3 0.8
2015-Jul-30 10:33N 34°12' E 135°04'3 3.3
2015-Jul-30 09:33N 34°13' E 135°08'1 0.1
2015-Jul-30 04:33N 34°13' E 135°09'6 6.2
2015-Jul-30 03:32N 34°11' E 135°01'4 1.2
2015-Jul-30 00:13N 34°10' E 134°57'1014.7
2015-Jul-29 23:34N 34°13' E 135°08'2 1.9
2015-Jul-29 22:33N 34°13' E 135°06'17 5.0
2015-Jul-29 19:09N 34°07' E 134°46'913.2
2015-Jul-29 18:30N 34°09' E 134°56'1111.6
2015-Jul-29 17:33N 34°13' E 135°09'0 0.0
2015-Jul-29 16:33N 34°13' E 135°09'0 0.0
2015-Jul-29 15:33N 34°13' E 135°09'7 6.6
2015-Jul-29 14:33N 34°11' E 135°01'10 3.2
2015-Jul-29 11:24N 34°08' E 134°50'1315.0
2015-Jul-29 10:33N 34°12' E 135°04'3 3.3
2015-Jul-29 09:34N 34°13' E 135°08'20 5.7
2015-Jul-29 06:09N 34°06' E 134°46'1214.3
2015-Jul-29 05:18N 34°12' E 134°58'811.2
2015-Jul-29 04:34N 34°13' E 135°09'7 6.7
2015-Jul-29 03:33N 34°11' E 135°01'2 0.6
2015-Jul-29 00:08N 34°10' E 134°58'814.4
2015-Jul-28 23:33N 34°13' E 135°08'2 2.0
2015-Jul-28 22:33N 34°13' E 135°06'17 5.0
2015-Jul-28 19:07N 34°06' E 134°46'813.7
2015-Jul-28 18:32N 34°09' E 134°55'1211.9
2015-Jul-28 17:33N 34°13' E 135°09'0 0.0
2015-Jul-28 16:33N 34°13' E 135°09'0 0.0
2015-Jul-28 15:33N 34°13' E 135°09'7 7.3
2015-Jul-28 14:33N 34°11' E 135°00'3 0.8
2015-Jul-28 10:33N 34°12' E 135°04'4 3.9
2015-Jul-28 09:33N 34°13' E 135°09'10 2.5
2015-Jul-28 05:28N 34°10' E 134°57'1011.3
2015-Jul-28 04:33N 34°13' E 135°09'7 6.7
2015-Jul-28 03:33N 34°11' E 135°01'2 0.7
2015-Jul-28 00:09N 34°10' E 134°58'914.5
2015-Jul-27 23:33N 34°13' E 135°08'1 1.4
2015-Jul-27 22:33N 34°13' E 135°06'18 5.4
2015-Jul-27 19:10N 34°06' E 134°46'1114.1
2015-Jul-27 18:25N 34°10' E 134°58'1011.3
2015-Jul-27 17:34N 34°13' E 135°09'0 0.0
2015-Jul-27 16:34N 34°13' E 135°09'0 0.0
2015-Jul-27 15:34N 34°13' E 135°09'7 6.5
2015-Jul-27 14:33N 34°11' E 135°01'11 3.4
2015-Jul-27 11:27N 34°07' E 134°49'1314.6
2015-Jul-27 10:33N 34°12' E 135°04'4 4.1
2015-Jul-27 09:33N 34°13' E 135°09'20 5.9
2015-Jul-27 06:08N 34°06' E 134°46'914.1
2015-Jul-27 05:28N 34°10' E 134°56'1112.2
2015-Jul-27 04:34N 34°13' E 135°09'7 6.9
2015-Jul-27 03:33N 34°11' E 135°00'4 1.3
2015-Jul-27 00:18N 34°10' E 134°56'1114.6
2015-Jul-26 23:33N 34°13' E 135°08'2 2.0
2015-Jul-26 22:33N 34°13' E 135°06'19 5.6
2015-Jul-26 19:13N 34°06' E 134°45'1013.7
2015-Jul-26 18:30N 34°10' E 134°56'1111.5
2015-Jul-26 17:33N 34°13' E 135°09'0 0.0
2015-Jul-26 16:33N 34°13' E 135°09'0 0.0
2015-Jul-26 15:33N 34°13' E 135°09'6 6.2
2015-Jul-26 14:33N 34°11' E 135°02'10 3.1
2015-Jul-26 11:23N 34°07' E 134°50'1214.5
2015-Jul-26 10:33N 34°12' E 135°04'4 4.0
2015-Jul-26 09:34N 34°13' E 135°09'19 5.4
2015-Jul-26 06:04N 34°07' E 134°47'1014.1
2015-Jul-26 05:20N 34°09' E 134°59'911.1
2015-Jul-26 04:33N 34°13' E 135°09'8 7.6
2015-Jul-26 03:33N 34°10' E 135°00'7 1.7
2015-Jul-25 23:34N 34°13' E 135°08'3 3.3
2015-Jul-25 22:33N 34°11' E 135°04'16 4.7
2015-Jul-25 19:10N 34°06' E 134°46'913.1
2015-Jul-25 18:31N 34°09' E 134°56'1111.7
2015-Jul-25 17:33N 34°13' E 135°09'0 0.0
2015-Jul-25 16:33N 34°13' E 135°09'0 0.0
2015-Jul-25 15:33N 34°13' E 135°09'7 6.9
2015-Jul-25 14:33N 34°11' E 135°00'11 3.6
2015-Jul-25 11:31N 34°07' E 134°48'1414.5
2015-Jul-25 10:34N 34°12' E 135°04'4 4.0
2015-Jul-25 09:33N 34°13' E 135°09'8 1.7
2015-Jul-25 05:15N 34°11' E 134°60'810.9
2015-Jul-25 04:34N 34°13' E 135°09'8 7.9
2015-Jul-25 03:33N 34°10' E 134°60'3 1.0
2015-Jul-25 00:16N 34°08' E 134°57'1014.7
2015-Jul-24 23:34N 34°13' E 135°08'3 2.8
2015-Jul-24 22:34N 34°12' E 135°05'16 4.7
2015-Jul-24 19:12N 34°07' E 134°47'1112.8
2015-Jul-24 18:23N 34°12' E 134°58'910.7
2015-Jul-24 17:33N 34°13' E 135°09'0 0.0
2015-Jul-24 16:33N 34°13' E 135°09'0 0.0
2015-Jul-24 15:33N 34°13' E 135°09'7 7.2
2015-Jul-24 14:33N 34°11' E 135°00'3 0.8
2015-Jul-24 10:33N 34°12' E 135°04'4 3.9
2015-Jul-24 09:33N 34°13' E 135°09'22 6.5
2015-Jul-24 06:16N 34°06' E 134°44'1214.4
2015-Jul-24 05:26N 34°11' E 134°57'1011.2
2015-Jul-24 04:33N 34°13' E 135°09'6 6.4
2015-Jul-24 03:33N 34°11' E 135°01'4 1.2
2015-Jul-24 00:13N 34°09' E 134°57'1014.7
2015-Jul-23 23:34N 34°13' E 135°08'1 1.4
2015-Jul-23 22:34N 34°13' E 135°06'18 5.2
2015-Jul-23 19:09N 34°05' E 134°47'1213.6
2015-Jul-23 18:17N 34°10' E 134°60'810.9
2015-Jul-23 17:33N 34°13' E 135°09'0 0.0
2015-Jul-23 16:33N 34°13' E 135°09'0 0.0
2015-Jul-23 15:33N 34°13' E 135°09'7 6.5
2015-Jul-23 14:33N 34°12' E 135°01'3 0.8
2015-Jul-23 10:34N 34°12' E 135°05'3 3.1
2015-Jul-23 09:34N 34°13' E 135°08'20 5.8
2015-Jul-23 06:09N 34°06' E 134°46'913.9
2015-Jul-23 05:32N 34°10' E 134°56'1111.6
2015-Jul-23 04:34N 34°13' E 135°09'7 7.3
2015-Jul-23 03:34N 34°11' E 135°00'7 1.7
2015-Jul-22 23:33N 34°13' E 135°08'2 2.0
2015-Jul-22 22:33N 34°13' E 135°06'20 6.1
2015-Jul-22 19:19N 34°04' E 134°44'1114.2
2015-Jul-22 18:31N 34°09' E 134°56'1111.3
2015-Jul-22 17:34N 34°13' E 135°09'0 0.0
2015-Jul-22 16:33N 34°13' E 135°09'0 0.0
2015-Jul-22 15:33N 34°13' E 135°09'7 6.9
2015-Jul-22 14:34N 34°11' E 135°01'10 3.3
2015-Jul-22 11:28N 34°07' E 134°49'1314.6
2015-Jul-22 10:34N 34°12' E 135°04'4 3.7
2015-Jul-22 09:33N 34°13' E 135°08'8 1.8
2015-Jul-22 05:16N 34°11' E 134°59'811.2
2015-Jul-22 04:33N 34°13' E 135°09'7 6.5
2015-Jul-22 03:33N 34°11' E 135°01'8 2.7
2015-Jul-22 00:32N 34°07' E 134°53'1414.6
2015-Jul-21 23:33N 34°13' E 135°08'2 1.7
2015-Jul-21 22:33N 34°13' E 135°06'19 5.6
2015-Jul-21 19:11N 34°06' E 134°45'1114.5
2015-Jul-21 18:25N 34°10' E 134°57'1011.2
2015-Jul-21 17:33N 34°13' E 135°09'0 0.0
2015-Jul-21 16:33N 34°13' E 135°09'0 0.0
2015-Jul-21 15:33N 34°13' E 135°09'  
Track history (hours):
 
Tides and Currents Weather Stations Pressure Air Temp Water Temp Dewpoint Dewpoint Depression Visibility Wind Speed Wind Dir Waves Ship Positions

Ferry Katsuragi

Last reported at 2015-Jul-31 14:34 UTC. Time now 2015-Jul-31 15:28 UTC.
Position N 34°11' E 135°01'.

Length 108 m; draft 4 m.

Type: Passenger vessel. MMSI: 431301245.

Date/timePositionNaut miles runAvg speedWind from/ knotsBaromVisibWave heightAir tempDewpointWater temp
2015-Jul-31 14:34N 34°11' E 135°01'3 0.7
2015-Jul-31 10:33N 34°12' E 135°04'4 3.9
2015-Jul-31 09:33N 34°13' E 135°08'9 2.1
2015-Jul-31 05:22N 34°10' E 134°58'911.5
2015-Jul-31 04:34N 34°13' E 135°09'7 6.7
2015-Jul-31 03:33N 34°11' E 135°01'4 1.4
2015-Jul-31 00:17N 34°10' E 134°56'1114.8
2015-Jul-30 23:33N 34°13' E 135°08'2 1.7
2015-Jul-30 22:33N 34°13' E 135°06'7 1.7
2015-Jul-30 18:22N 34°11' E 134°58'911.3
2015-Jul-30 17:33N 34°13' E 135°09'0 0.0
2015-Jul-30 16:33N 34°13' E 135°09'0 0.0
2015-Jul-30 15:33N 34°13' E 135°09'7 7.2
2015-Jul-30 14:33N 34°11' E 135°00'3 0.8
2015-Jul-30 10:33N 34°12' E 135°04'3 3.3
2015-Jul-30 09:33N 34°13' E 135°08'1 0.1
2015-Jul-30 04:33N 34°13' E 135°09'6 6.2
2015-Jul-30 03:32N 34°11' E 135°01'4 1.2
2015-Jul-30 00:13N 34°10' E 134°57'1014.7
2015-Jul-29 23:34N 34°13' E 135°08'2 1.9
2015-Jul-29 22:33N 34°13' E 135°06'17 5.0
2015-Jul-29 19:09N 34°07' E 134°46'913.2
2015-Jul-29 18:30N 34°09' E 134°56'1111.6
2015-Jul-29 17:33N 34°13' E 135°09'0 0.0
2015-Jul-29 16:33N 34°13' E 135°09'0 0.0
2015-Jul-29 15:33N 34°13' E 135°09'7 6.6
2015-Jul-29 14:33N 34°11' E 135°01'10 3.2
2015-Jul-29 11:24N 34°08' E 134°50'1315.0
2015-Jul-29 10:33N 34°12' E 135°04'3 3.3
2015-Jul-29 09:34N 34°13' E 135°08'20 5.7
2015-Jul-29 06:09N 34°06' E 134°46'1214.3
2015-Jul-29 05:18N 34°12' E 134°58'811.2
2015-Jul-29 04:34N 34°13' E 135°09'7 6.7
2015-Jul-29 03:33N 34°11' E 135°01'2 0.6
2015-Jul-29 00:08N 34°10' E 134°58'814.4
2015-Jul-28 23:33N 34°13' E 135°08'2 2.0
2015-Jul-28 22:33N 34°13' E 135°06'17 5.0
2015-Jul-28 19:07N 34°06' E 134°46'813.7
2015-Jul-28 18:32N 34°09' E 134°55'1211.9
2015-Jul-28 17:33N 34°13' E 135°09'0 0.0
2015-Jul-28 16:33N 34°13' E 135°09'0 0.0
2015-Jul-28 15:33N 34°13' E 135°09'7 7.3
2015-Jul-28 14:33N 34°11' E 135°00'3 0.8
2015-Jul-28 10:33N 34°12' E 135°04'4 3.9
2015-Jul-28 09:33N 34°13' E 135°09'10 2.5
2015-Jul-28 05:28N 34°10' E 134°57'1011.3
2015-Jul-28 04:33N 34°13' E 135°09'7 6.7
2015-Jul-28 03:33N 34°11' E 135°01'2 0.7
2015-Jul-28 00:09N 34°10' E 134°58'914.5
2015-Jul-27 23:33N 34°13' E 135°08'1 1.4
2015-Jul-27 22:33N 34°13' E 135°06'18 5.4
2015-Jul-27 19:10N 34°06' E 134°46'1114.1
2015-Jul-27 18:25N 34°10' E 134°58'1011.3
2015-Jul-27 17:34N 34°13' E 135°09'0 0.0
2015-Jul-27 16:34N 34°13' E 135°09'0 0.0
2015-Jul-27 15:34N 34°13' E 135°09'7 6.5
2015-Jul-27 14:33N 34°11' E 135°01'11 3.4
2015-Jul-27 11:27N 34°07' E 134°49'1314.6
2015-Jul-27 10:33N 34°12' E 135°04'4 4.1
2015-Jul-27 09:33N 34°13' E 135°09'20 5.9
2015-Jul-27 06:08N 34°06' E 134°46'914.1
2015-Jul-27 05:28N 34°10' E 134°56'1112.2
2015-Jul-27 04:34N 34°13' E 135°09'7 6.9
2015-Jul-27 03:33N 34°11' E 135°00'4 1.3
2015-Jul-27 00:18N 34°10' E 134°56'1114.6
2015-Jul-26 23:33N 34°13' E 135°08'2 2.0
2015-Jul-26 22:33N 34°13' E 135°06'19 5.6
2015-Jul-26 19:13N 34°06' E 134°45'1013.7
2015-Jul-26 18:30N 34°10' E 134°56'1111.5
2015-Jul-26 17:33N 34°13' E 135°09'0 0.0
2015-Jul-26 16:33N 34°13' E 135°09'0 0.0
2015-Jul-26 15:33N 34°13' E 135°09'6 6.2
2015-Jul-26 14:33N 34°11' E 135°02'10 3.1
2015-Jul-26 11:23N 34°07' E 134°50'1214.5
2015-Jul-26 10:33N 34°12' E 135°04'4 4.0
2015-Jul-26 09:34N 34°13' E 135°09'19 5.4
2015-Jul-26 06:04N 34°07' E 134°47'1014.1
2015-Jul-26 05:20N 34°09' E 134°59'911.1
2015-Jul-26 04:33N 34°13' E 135°09'8 7.6
2015-Jul-26 03:33N 34°10' E 135°00'7 1.7
2015-Jul-25 23:34N 34°13' E 135°08'3 3.3
2015-Jul-25 22:33N 34°11' E 135°04'16 4.7
2015-Jul-25 19:10N 34°06' E 134°46'913.1
2015-Jul-25 18:31N 34°09' E 134°56'1111.7
2015-Jul-25 17:33N 34°13' E 135°09'0 0.0
2015-Jul-25 16:33N 34°13' E 135°09'0 0.0
2015-Jul-25 15:33N 34°13' E 135°09'7 6.9
2015-Jul-25 14:33N 34°11' E 135°00'11 3.6
2015-Jul-25 11:31N 34°07' E 134°48'1414.5
2015-Jul-25 10:34N 34°12' E 135°04'4 4.0
2015-Jul-25 09:33N 34°13' E 135°09'8 1.7
2015-Jul-25 05:15N 34°11' E 134°60'810.9
2015-Jul-25 04:34N 34°13' E 135°09'8 7.9
2015-Jul-25 03:33N 34°10' E 134°60'3 1.0
2015-Jul-25 00:16N 34°08' E 134°57'1014.7
2015-Jul-24 23:34N 34°13' E 135°08'3 2.8
2015-Jul-24 22:34N 34°12' E 135°05'16 4.7
2015-Jul-24 19:12N 34°07' E 134°47'1112.8
2015-Jul-24 18:23N 34°12' E 134°58'910.7
2015-Jul-24 17:33N 34°13' E 135°09'0 0.0
2015-Jul-24 16:33N 34°13' E 135°09'0 0.0
2015-Jul-24 15:33N 34°13' E 135°09'7 7.2
2015-Jul-24 14:33N 34°11' E 135°00'3 0.8
2015-Jul-24 10:33N 34°12' E 135°04'4 3.9
2015-Jul-24 09:33N 34°13' E 135°09'22 6.5
2015-Jul-24 06:16N 34°06' E 134°44'1214.4
2015-Jul-24 05:26N 34°11' E 134°57'1011.2
2015-Jul-24 04:33N 34°13' E 135°09'6 6.4
2015-Jul-24 03:33N 34°11' E 135°01'4 1.2
2015-Jul-24 00:13N 34°09' E 134°57'1014.7
2015-Jul-23 23:34N 34°13' E 135°08'1 1.4
2015-Jul-23 22:34N 34°13' E 135°06'18 5.2
2015-Jul-23 19:09N 34°05' E 134°47'1213.6
2015-Jul-23 18:17N 34°10' E 134°60'810.9
2015-Jul-23 17:33N 34°13' E 135°09'0 0.0
2015-Jul-23 16:33N 34°13' E 135°09'0 0.0
2015-Jul-23 15:33N 34°13' E 135°09'7 6.5
2015-Jul-23 14:33N 34°12' E 135°01'3 0.8
2015-Jul-23 10:34N 34°12' E 135°05'3 3.1
2015-Jul-23 09:34N 34°13' E 135°08'20 5.8
2015-Jul-23 06:09N 34°06' E 134°46'913.9
2015-Jul-23 05:32N 34°10' E 134°56'1111.6
2015-Jul-23 04:34N 34°13' E 135°09'7 7.3
2015-Jul-23 03:34N 34°11' E 135°00'7 1.7
2015-Jul-22 23:33N 34°13' E 135°08'2 2.0
2015-Jul-22 22:33N 34°13' E 135°06'20 6.1
2015-Jul-22 19:19N 34°04' E 134°44'1114.2
2015-Jul-22 18:31N 34°09' E 134°56'1111.3
2015-Jul-22 17:34N 34°13' E 135°09'0 0.0
2015-Jul-22 16:33N 34°13' E 135°09'0 0.0
2015-Jul-22 15:33N 34°13' E 135°09'7 6.9
2015-Jul-22 14:34N 34°11' E 135°01'10 3.3
2015-Jul-22 11:28N 34°07' E 134°49'1314.6
2015-Jul-22 10:34N 34°12' E 135°04'4 3.7
2015-Jul-22 09:33N 34°13' E 135°08'8 1.8
2015-Jul-22 05:16N 34°11' E 134°59'811.2
2015-Jul-22 04:33N 34°13' E 135°09'7 6.5
2015-Jul-22 03:33N 34°11' E 135°01'8 2.7
2015-Jul-22 00:32N 34°07' E 134°53'1414.6
2015-Jul-21 23:33N 34°13' E 135°08'2 1.7
2015-Jul-21 22:33N 34°13' E 135°06'19 5.6
2015-Jul-21 19:11N 34°06' E 134°45'1114.5
2015-Jul-21 18:25N 34°10' E 134°57'1011.2
2015-Jul-21 17:33N 34°13' E 135°09'0 0.0
2015-Jul-21 16:33N 34°13' E 135°09'0 0.0
2015-Jul-21 15:33N 34°13' E 135°09'  

Dump ship's entire track history